createdAt,value
2023-04-05T00:01:13.843Z,102032.88
2023-04-05T00:03:43.979Z,102035.44
2023-04-05T00:06:13.437Z,102030.28
2023-04-05T00:08:42.013Z,102045.28
2023-04-05T00:11:10.035Z,102045.28
2023-04-05T00:13:38.340Z,102034.56
2023-04-05T00:16:08.604Z,102037.25
2023-04-05T00:18:38.708Z,102038.22
2023-04-05T00:21:07.438Z,102038.22
2023-04-05T00:23:38.722Z,102039.06
2023-04-05T00:26:07.100Z,102040.81
2023-04-05T00:28:36.156Z,102025.78
2023-04-05T00:31:04.726Z,102031.91
2023-04-05T00:33:34.184Z,102038.22
2023-04-05T00:36:11.442Z,102039.94
2023-04-05T00:38:40.252Z,102038.22
2023-04-05T00:41:08.505Z,102042.59
2023-04-05T00:43:36.999Z,102034.69
2023-04-05T00:46:05.724Z,102031.13
2023-04-05T00:48:36.064Z,102005.31
2023-04-05T00:51:04.243Z,102027.50
2023-04-05T00:53:33.186Z,102028.25
2023-04-05T00:56:02.306Z,102032.88
2023-04-05T00:58:30.791Z,102035.44
2023-04-05T01:01:06.525Z,102023.88
2023-04-05T01:03:37.198Z,102022.16
2023-04-05T01:06:18.146Z,102029.22
2023-04-05T01:09:06.586Z,102029.22
2023-04-05T01:11:36.610Z,102032.88
2023-04-05T01:14:04.751Z,102021.28
2023-04-05T01:16:32.845Z,102023.88
2023-04-05T01:19:04.011Z,102019.47
2023-04-05T01:22:14.948Z,102017.63
2023-04-05T01:25:19.830Z,102020.41
2023-04-05T01:28:19.774Z,102015.06
2023-04-05T01:30:53.414Z,102024.06
2023-04-05T01:33:27.038Z,102007.13
2023-04-05T01:36:02.883Z,101941.16
2023-04-05T01:38:33.168Z,102013.34
2023-04-05T01:41:01.431Z,102013.34
2023-04-05T01:43:29.621Z,102008.00
2023-04-05T01:45:59.101Z,102001.78
2023-04-05T01:48:27.215Z,102010.69
2023-04-05T01:50:55.288Z,102002.66
2023-04-05T01:53:23.361Z,102009.72
2023-04-05T01:55:51.450Z,101999.19
2023-04-05T01:58:19.540Z,102003.53
2023-04-05T02:00:47.665Z,101999.97
2023-04-05T02:03:17.424Z,101995.59
2023-04-05T02:05:45.789Z,102005.31
2023-04-05T02:08:14.523Z,102002.66
2023-04-05T02:10:43.008Z,102001.78
2023-04-05T02:13:11.485Z,101999.00
2023-04-05T02:15:39.563Z,101999.00
2023-04-05T02:18:08.154Z,101996.31
2023-04-05T02:20:37.826Z,101999.88
2023-04-05T02:23:06.117Z,101991.16
2023-04-05T02:25:34.195Z,101988.50
2023-04-05T02:28:02.412Z,101989.16
2023-04-05T02:30:30.456Z,101984.88
2023-04-05T02:32:58.600Z,101993.66
2023-04-05T02:35:29.117Z,101994.63
2023-04-05T02:37:58.696Z,101991.94
2023-04-05T02:40:26.749Z,101981.22
2023-04-05T02:42:54.888Z,101991.06
2023-04-05T02:45:23.063Z,101989.25
2023-04-05T02:47:51.232Z,101992.81
2023-04-05T02:50:20.708Z,101975.88
2023-04-05T02:52:49.009Z,101947.13
2023-04-05T02:55:19.253Z,101978.56
2023-04-05T02:57:47.441Z,101980.38
2023-04-05T03:00:16.610Z,101986.59
2023-04-05T03:02:44.753Z,101984.88
2023-04-05T03:05:14.108Z,101981.44
2023-04-05T03:07:44.738Z,101983.03
2023-04-05T03:10:13.843Z,101979.53
2023-04-05T03:12:43.337Z,101975.09
2023-04-05T03:15:12.093Z,101979.53
2023-04-05T03:17:40.291Z,101963.47
2023-04-05T03:20:09.941Z,101958.94
2023-04-05T03:22:38.042Z,101968.81
2023-04-05T03:25:07.112Z,101963.47
2023-04-05T03:27:35.235Z,101960.78
2023-04-05T03:30:05.420Z,101957.25
2023-04-05T03:32:33.495Z,101958.09
2023-04-05T03:35:01.689Z,101963.47
2023-04-05T03:37:29.800Z,101970.53
2023-04-05T03:39:57.997Z,101960.78
2023-04-05T03:42:26.420Z,101963.47
2023-04-05T03:44:55.038Z,101953.06
2023-04-05T03:47:24.565Z,101963.47
2023-04-05T03:49:52.709Z,101968.81
2023-04-05T03:52:20.795Z,101960.78
2023-04-05T03:54:48.874Z,101957.25
2023-04-05T03:57:16.986Z,101958.09
2023-04-05T03:59:45.066Z,101934.88
2023-04-05T04:02:13.446Z,101963.47
2023-04-05T04:04:43.093Z,101957.25
2023-04-05T04:07:11.351Z,101965.16
2023-04-05T04:09:39.457Z,101954.66
2023-04-05T04:12:07.814Z,101954.47
2023-04-05T04:14:36.589Z,101958.09
2023-04-05T04:17:04.655Z,101958.09
2023-04-05T04:19:32.800Z,101952.75
2023-04-05T04:22:02.650Z,101949.31
2023-04-05T04:24:32.717Z,101951.00
2023-04-05T04:27:00.828Z,101953.59
2023-04-05T04:29:31.368Z,101951.00
2023-04-05T04:31:59.524Z,101952.75
2023-04-05T04:34:30.654Z,101954.56
2023-04-05T04:37:01.631Z,101946.53
2023-04-05T04:39:32.901Z,101943.75
2023-04-05T04:42:01.530Z,101947.41
2023-04-05T04:44:31.626Z,101947.41
2023-04-05T04:46:59.771Z,101947.41
2023-04-05T04:49:28.401Z,101949.31
2023-04-05T04:51:58.638Z,101951.00
2023-04-05T04:54:29.453Z,101945.66
2023-04-05T04:56:58.943Z,101951.00
2023-04-05T04:59:27.055Z,101949.31
2023-04-05T05:01:55.185Z,101951.00
2023-04-05T05:04:23.651Z,101934.72
2023-04-05T05:06:52.866Z,101934.94
2023-04-05T05:09:20.985Z,101943.94
2023-04-05T05:11:49.034Z,101947.41
2023-04-05T05:14:18.537Z,101949.09
2023-04-05T05:16:46.773Z,101951.00
2023-04-05T05:19:14.943Z,101948.34
2023-04-05T05:21:42.993Z,101942.25
2023-04-05T05:24:11.260Z,101947.41
2023-04-05T05:26:39.371Z,101942.25
2023-04-05T05:29:07.446Z,101945.66
2023-04-05T05:31:36.965Z,101946.53
2023-04-05T05:34:05.132Z,101946.63
2023-04-05T05:36:33.644Z,101949.31
2023-04-05T05:39:01.740Z,101940.31
2023-04-05T05:41:29.866Z,101938.81
2023-04-05T05:43:58.019Z,101940.31
2023-04-05T05:46:26.975Z,101945.66
2023-04-05T05:48:56.889Z,101928.84
2023-04-05T05:51:25.017Z,101937.63
2023-04-05T05:53:53.082Z,101936.69
2023-04-05T05:56:21.149Z,101934.22
2023-04-05T05:58:49.367Z,101937.63
2023-04-05T06:01:17.538Z,101932.28
2023-04-05T06:03:46.108Z,101933.25
2023-04-05T06:06:15.707Z,101929.59
2023-04-05T06:08:43.820Z,101934.00
2023-04-05T06:11:18.929Z,101931.34
2023-04-05T06:13:47.315Z,101887.31
2023-04-05T06:16:15.487Z,101922.53
2023-04-05T06:18:43.947Z,101921.66
2023-04-05T06:21:12.056Z,101931.34
2023-04-05T06:23:42.032Z,101931.34
2023-04-05T06:26:10.290Z,101936.69
2023-04-05T06:28:38.344Z,101936.69
2023-04-05T06:31:06.698Z,101936.69
2023-04-05T06:33:34.793Z,101934.94
2023-04-05T06:36:02.917Z,101934.94
2023-04-05T06:38:30.999Z,101930.47
2023-04-05T06:41:00.547Z,101928.66
2023-04-05T06:43:28.645Z,101924.25
2023-04-05T06:45:57.386Z,101912.22
2023-04-05T06:48:25.595Z,101927.88
2023-04-05T06:50:58.488Z,101887.44
2023-04-05T06:53:27.641Z,101918.06
2023-04-05T06:55:56.126Z,101924.25
2023-04-05T06:58:26.381Z,101925.97
2023-04-05T07:00:54.922Z,101918.88
2023-04-05T07:03:23.038Z,101918.88
2023-04-05T07:05:54.724Z,101915.28
2023-04-05T07:08:22.813Z,101910.84
2023-04-05T07:10:51.807Z,101910.84
2023-04-05T07:13:20.235Z,101904.78
2023-04-05T07:15:49.899Z,101902.81
2023-04-05T07:18:18.702Z,101909.91
2023-04-05T07:20:48.914Z,101900.16
2023-04-05T07:23:18.283Z,101904.56
2023-04-05T07:25:46.532Z,101901.00
2023-04-05T07:28:14.573Z,101898.34
2023-04-05T07:30:42.786Z,101891.19
2023-04-05T07:33:12.960Z,101888.50
2023-04-05T07:35:41.054Z,101887.63
2023-04-05T07:38:11.348Z,101893.84
2023-04-05T07:40:39.517Z,101883.16
2023-04-05T07:43:07.730Z,101875.13
2023-04-05T07:45:36.057Z,101882.06
2023-04-05T07:48:04.265Z,101872.97
2023-04-05T07:50:35.072Z,101875.44
2023-04-05T07:53:03.326Z,101868.16
2023-04-05T07:55:31.593Z,101863.69
2023-04-05T07:57:59.669Z,101867.97
2023-04-05T08:00:27.794Z,101858.94
2023-04-05T08:02:57.386Z,101871.41
2023-04-05T08:05:29.564Z,101866.03
2023-04-05T08:07:59.294Z,101862.41
2023-04-05T08:10:27.585Z,101815.88
2023-04-05T08:12:55.708Z,101863.25
2023-04-05T08:15:23.948Z,101851.47
2023-04-05T08:17:52.355Z,101846.94
2023-04-05T08:20:20.478Z,101855.13
2023-04-05T08:22:48.523Z,101852.56
2023-04-05T08:25:18.216Z,101846.53
2023-04-05T08:27:46.609Z,101854.47
2023-04-05T08:30:15.102Z,101851.91
2023-04-05T08:32:43.204Z,101844.84
2023-04-05T08:35:11.300Z,101850.19
2023-04-05T08:37:39.797Z,101851.13
2023-04-05T08:40:09.370Z,101852.88
2023-04-05T08:42:47.621Z,101846.75
2023-04-05T08:45:20.293Z,101837.94
2023-04-05T08:47:50.776Z,101843.31
2023-04-05T08:50:19.086Z,101839.69
2023-04-05T08:52:50.044Z,101840.72
2023-04-05T08:55:18.444Z,101827.25
2023-04-05T08:57:55.657Z,101831.75
2023-04-05T09:00:23.977Z,101823.84
2023-04-05T09:02:56.629Z,101821.25
2023-04-05T09:05:25.995Z,101816.75
2023-04-05T09:07:54.404Z,101815.81
2023-04-05T09:10:23.827Z,101813.13
2023-04-05T09:12:53.788Z,101813.13
2023-04-05T09:15:24.519Z,101819.31
2023-04-05T09:17:53.478Z,101806.03
2023-04-05T09:20:21.645Z,101800.69
2023-04-05T09:22:49.747Z,101822.09
2023-04-05T09:25:38.862Z,101806.03
2023-04-05T09:28:08.917Z,101804.31
2023-04-05T09:30:37.836Z,101800.88
2023-04-05T09:33:10.469Z,101800.47
2023-04-05T09:35:38.932Z,101799.41
2023-04-05T09:38:07.456Z,101808.19
2023-04-05T09:40:46.306Z,101799.09
2023-04-05T09:43:39.452Z,101780.34
2023-04-05T09:46:08.010Z,101785.72
2023-04-05T09:48:47.774Z,101785.50
2023-04-05T09:51:16.715Z,101783.56
2023-04-05T09:54:01.882Z,101795.97
2023-04-05T09:56:31.341Z,101787.00
2023-04-05T09:59:07.946Z,101771.03
2023-04-05T10:01:36.737Z,101785.03
2023-04-05T10:04:06.292Z,101782.38
2023-04-05T10:06:38.547Z,101777.00
2023-04-05T10:09:08.143Z,101775.19
2023-04-05T10:11:37.544Z,101768.13
2023-04-05T10:14:08.880Z,101726.03
2023-04-05T10:16:45.060Z,101774.44
2023-04-05T10:19:23.077Z,101753.38
2023-04-05T10:21:53.415Z,101764.06
2023-04-05T10:24:34.997Z,101739.22
2023-04-05T10:27:07.621Z,101755.28
2023-04-05T10:29:48.312Z,101744.56
2023-04-05T10:32:23.956Z,101740.19
2023-04-05T10:35:01.947Z,101742.88
2023-04-05T10:37:38.082Z,101742.13
2023-04-05T10:40:11.269Z,101724.00
2023-04-05T10:42:44.613Z,101735.78
2023-04-05T10:45:19.633Z,101735.56
2023-04-05T10:47:51.736Z,101742.41
2023-04-05T10:50:24.208Z,101744.16
2023-04-05T10:52:53.123Z,101734.91
2023-04-05T10:55:22.033Z,101736.41
2023-04-05T10:57:51.510Z,101735.34
2023-04-05T11:00:22.242Z,101730.09
2023-04-05T11:02:55.274Z,101725.69
2023-04-05T11:05:34.380Z,101718.63
2023-04-05T11:08:06.653Z,101720.56
2023-04-05T11:10:38.417Z,101709.13
2023-04-05T11:13:08.852Z,101698.06
2023-04-05T11:15:38.921Z,101699.81
2023-04-05T11:18:09.721Z,101706.88
2023-04-05T11:21:06.457Z,101704.91
2023-04-05T11:23:54.544Z,101706.66
2023-04-05T11:26:22.596Z,101704.91
2023-04-05T11:29:00.667Z,101692.50
2023-04-05T11:31:30.419Z,101704.09
2023-04-05T11:34:00.717Z,101703.22
2023-04-05T11:36:42.175Z,101692.50
2023-04-05T11:39:27.018Z,101697.13
2023-04-05T11:42:06.329Z,101653.34
2023-04-05T11:44:46.440Z,101687.47
2023-04-05T11:47:21.490Z,101685.56
2023-04-05T11:49:52.005Z,101676.16
2023-04-05T11:52:21.909Z,101680.31
2023-04-05T11:54:50.411Z,101687.38
2023-04-05T11:57:21.428Z,101682.00
2023-04-05T11:59:51.668Z,101675.81
2023-04-05T12:02:22.479Z,101683.75
2023-04-05T12:04:56.287Z,101680.31
2023-04-05T12:07:27.924Z,101674.97
2023-04-05T12:10:04.451Z,101674.97
2023-04-05T12:12:40.692Z,101662.53
2023-04-05T12:15:11.039Z,101663.38
2023-04-05T12:17:42.323Z,101657.19
2023-04-05T12:20:11.734Z,101651.84
2023-04-05T12:22:41.853Z,101651.84
2023-04-05T12:25:11.174Z,101646.47
2023-04-05T12:27:40.265Z,101645.63
2023-04-05T12:30:10.245Z,101644.75
2023-04-05T12:32:42.738Z,101639.38
2023-04-05T12:35:16.715Z,101638.44
2023-04-05T12:37:44.948Z,101641.13
2023-04-05T12:40:13.443Z,101639.38
2023-04-05T12:42:42.396Z,101643.81
2023-04-05T12:45:14.417Z,101541.41
2023-04-05T12:47:59.387Z,101634.91
2023-04-05T12:50:29.633Z,101635.75
2023-04-05T12:53:01.878Z,101629.66
2023-04-05T12:55:31.084Z,101626.00
2023-04-05T12:58:01.706Z,101632.22
2023-04-05T13:00:31.286Z,101625.28
2023-04-05T13:03:01.304Z,101608.13
2023-04-05T13:05:31.322Z,101604.22
2023-04-05T13:08:00.555Z,101611.69
2023-04-05T13:10:28.740Z,101612.53
2023-04-05T13:12:57.143Z,101610.59
2023-04-05T13:15:25.339Z,101601.81
2023-04-05T13:17:55.122Z,101599.03
2023-04-05T13:20:25.014Z,101607.94
2023-04-05T13:22:53.354Z,101594.75
2023-04-05T13:25:21.626Z,101585.75
2023-04-05T13:27:50.310Z,101584.03
2023-04-05T13:30:19.175Z,101585.03
2023-04-05T13:32:47.446Z,101579.66
2023-04-05T13:35:15.678Z,101575.25
2023-04-05T13:37:45.428Z,101572.56
2023-04-05T13:40:13.905Z,101566.28
2023-04-05T13:42:42.212Z,101571.63
2023-04-05T13:45:11.070Z,101566.28
2023-04-05T13:47:39.228Z,101555.56
2023-04-05T13:50:09.030Z,101554.59
2023-04-05T13:52:38.021Z,101557.25
2023-04-05T13:55:08.603Z,101553.59
2023-04-05T13:57:37.089Z,101551.91
2023-04-05T14:00:06.622Z,101550.22
2023-04-05T14:02:34.879Z,101552.66
2023-04-05T14:05:03.146Z,101540.22
2023-04-05T14:07:31.661Z,101551.03
2023-04-05T14:09:59.819Z,101537.53
2023-04-05T14:12:30.359Z,101539.28
2023-04-05T14:15:00.471Z,101537.53
2023-04-05T14:17:28.700Z,101536.69
2023-04-05T14:19:56.857Z,101542.88
2023-04-05T14:22:25.019Z,101533.91
2023-04-05T14:24:53.193Z,101535.59
2023-04-05T14:27:26.713Z,101530.25
2023-04-05T14:29:57.495Z,101526.59
2023-04-05T14:32:27.138Z,101525.88
2023-04-05T14:34:55.656Z,101523.91
2023-04-05T14:37:23.936Z,101521.22
2023-04-05T14:39:52.047Z,101515.03
2023-04-05T14:42:21.709Z,101514.19
2023-04-05T14:44:49.936Z,101509.06
2023-04-05T14:47:19.610Z,101512.47
2023-04-05T14:49:47.839Z,101504.34
2023-04-05T14:52:16.212Z,101515.03
2023-04-05T14:54:45.361Z,101507.84
2023-04-05T14:57:13.477Z,101499.81
2023-04-05T14:59:41.634Z,101505.16
2023-04-05T15:02:09.759Z,101514.19
2023-04-05T15:04:41.411Z,101502.47
2023-04-05T15:07:09.900Z,101506.25
2023-04-05T15:09:38.267Z,101494.78
2023-04-05T15:12:08.366Z,101493.22
2023-04-05T15:14:36.739Z,101502.22
2023-04-05T15:17:05.020Z,101507.59
2023-04-05T15:19:33.274Z,101495.13
2023-04-05T15:22:02.916Z,101507.59
2023-04-05T15:24:31.248Z,101516.34
2023-04-05T15:27:02.575Z,101507.34
2023-04-05T15:29:31.210Z,101503.81
2023-04-05T15:31:59.436Z,101506.38
2023-04-05T15:34:28.474Z,101507.34
2023-04-05T15:36:57.291Z,101496.63
2023-04-05T15:39:27.093Z,101511.72
2023-04-05T15:41:56.836Z,101503.69
2023-04-05T15:44:25.200Z,101505.63
2023-04-05T15:46:53.593Z,101511.63
2023-04-05T15:49:21.727Z,101510.75
2023-04-05T15:51:49.944Z,101507.13
2023-04-05T15:54:19.017Z,101501.78
2023-04-05T15:56:49.307Z,101495.53
2023-04-05T15:59:17.779Z,101500.03
2023-04-05T16:01:46.108Z,101493.97
2023-04-05T16:04:14.381Z,101498.34
2023-04-05T16:06:42.652Z,101495.53
2023-04-05T16:09:10.772Z,101491.06
2023-04-05T16:11:39.159Z,101491.06
2023-04-05T16:14:11.334Z,101491.06
2023-04-05T16:16:50.093Z,101491.88
2023-04-05T16:19:21.342Z,101486.41
2023-04-05T16:21:49.901Z,101474.97
2023-04-05T16:24:18.123Z,101481.81
2023-04-05T16:26:46.330Z,101481.81
2023-04-05T16:29:16.170Z,101485.47
2023-04-05T16:31:47.636Z,101483.72
2023-04-05T16:34:16.483Z,101473.03
2023-04-05T16:36:44.712Z,101481.16
2023-04-05T16:39:12.963Z,101477.88
2023-04-05T16:41:41.183Z,101477.13
2023-04-05T16:44:09.658Z,101475.44
2023-04-05T16:46:40.022Z,101468.34
2023-04-05T16:49:08.283Z,101468.34
2023-04-05T16:51:37.225Z,101463.97
2023-04-05T16:54:05.742Z,101464.97
2023-04-05T16:56:33.935Z,101462.41
2023-04-05T16:59:04.983Z,101458.09
2023-04-05T17:01:34.341Z,101465.19
2023-04-05T17:04:04.237Z,101453.63
2023-04-05T17:06:32.594Z,101457.28
2023-04-05T17:09:00.897Z,101467.13
2023-04-05T17:11:29.942Z,101467.22
2023-04-05T17:13:59.580Z,101468.22
2023-04-05T17:16:28.039Z,101472.69
2023-04-05T17:18:56.412Z,101478.06
2023-04-05T17:21:26.745Z,101472.69
2023-04-05T17:23:55.143Z,101472.69
2023-04-05T17:26:24.743Z,101474.91
2023-04-05T17:28:52.903Z,101480.81
2023-04-05T17:31:21.399Z,101484.19
2023-04-05T17:33:49.683Z,101489.56
2023-04-05T17:36:18.546Z,101494.91
2023-04-05T17:38:48.043Z,101496.63
2023-04-05T17:41:16.331Z,101502.22
2023-04-05T17:43:44.541Z,101502.81
2023-04-05T17:46:15.034Z,101501.13
2023-04-05T17:48:43.438Z,101496.63
2023-04-05T17:51:11.607Z,101498.03
2023-04-05T17:53:39.764Z,101514.41
2023-04-05T17:56:09.363Z,101518.91
2023-04-05T17:58:37.484Z,101525.13
2023-04-05T18:01:06.073Z,101517.94
2023-04-05T18:03:34.261Z,101519.75
2023-04-05T18:06:02.446Z,101523.66
2023-04-05T18:08:30.665Z,101529.00
2023-04-05T18:10:59.993Z,101530.94
2023-04-05T18:13:30.110Z,101532.84
2023-04-05T18:15:59.956Z,101532.84
2023-04-05T18:18:28.824Z,101527.63
2023-04-05T18:20:57.987Z,101530.28
2023-04-05T18:23:26.121Z,101530.41
2023-04-05T18:25:54.862Z,101536.75
2023-04-05T18:28:23.840Z,101531.38
2023-04-05T18:30:53.544Z,101543.91
2023-04-05T18:33:22.634Z,101545.75
2023-04-05T18:35:51.537Z,101549.38
2023-04-05T18:38:19.851Z,101544.03
2023-04-05T18:40:48.093Z,101547.69
2023-04-05T18:43:16.420Z,101558.41
2023-04-05T18:45:44.649Z,101555.81
2023-04-05T18:48:14.209Z,101572.75
2023-04-05T18:50:42.606Z,101572.75
2023-04-05T18:53:10.864Z,101566.75
2023-04-05T18:55:39.031Z,101578.34
2023-04-05T18:58:07.127Z,101588.06
2023-04-05T19:00:36.019Z,101585.41
2023-04-05T19:03:04.367Z,101593.44
2023-04-05T19:05:34.518Z,101594.41
2023-04-05T19:08:02.735Z,101593.53
2023-04-05T19:10:32.466Z,101591.84
2023-04-05T19:13:00.763Z,101602.53
2023-04-05T19:15:29.078Z,101580.25
2023-04-05T19:17:58.327Z,101592.69
2023-04-05T19:20:26.454Z,101582.22
2023-04-05T19:22:56.003Z,101580.25
2023-04-05T19:25:24.227Z,101590.13
2023-04-05T19:27:52.371Z,101591.94
2023-04-05T19:30:20.741Z,101596.44
2023-04-05T19:32:49.471Z,101592.94
2023-04-05T19:35:17.756Z,101593.75
2023-04-05T19:37:45.876Z,101580.47
2023-04-05T19:40:15.676Z,101582.22
2023-04-05T19:42:47.836Z,101576.84
2023-04-05T19:45:25.713Z,101574.06
2023-04-05T19:47:55.644Z,101572.97
2023-04-05T19:50:49.454Z,101574.69
2023-04-05T19:53:48.094Z,101589.44
2023-04-05T19:56:23.006Z,101575.22
2023-04-05T19:58:55.153Z,101576.16
2023-04-05T20:01:38.599Z,101579.81
2023-04-05T20:04:12.903Z,101565.94
2023-04-05T20:06:42.725Z,101558.84
2023-04-05T20:09:11.867Z,101559.81
2023-04-05T20:11:41.508Z,101567.84
2023-04-05T20:14:10.857Z,101560.78
2023-04-05T20:16:40.554Z,101557.16
2023-04-05T20:19:10.945Z,101565.41
2023-04-05T20:21:39.732Z,101560.78
2023-04-05T20:24:10.044Z,101564.41
2023-04-05T20:26:38.209Z,101554.56
2023-04-05T20:29:09.503Z,101553.72
2023-04-05T20:31:40.173Z,101559.06
2023-04-05T20:34:11.093Z,101549.34
2023-04-05T20:36:40.762Z,101558.22
2023-04-05T20:39:09.080Z,101546.00
2023-04-05T20:41:37.390Z,101546.66
2023-04-05T20:44:05.723Z,101535.94
2023-04-05T20:46:35.523Z,101543.22
2023-04-05T20:49:03.720Z,101541.31
2023-04-05T20:51:31.794Z,101521.19
2023-04-05T20:53:59.896Z,101533.38
2023-04-05T20:56:27.965Z,101534.25
2023-04-05T20:58:56.188Z,101380.38
2023-04-05T21:01:24.363Z,101514.97
2023-04-05T21:03:54.286Z,101435.06
2023-04-05T21:06:22.362Z,101521.81
2023-04-05T21:08:50.521Z,101412.59
2023-04-05T21:11:18.629Z,101525.47
2023-04-05T21:13:46.740Z,101516.69
2023-04-05T21:16:14.924Z,101521.53
2023-04-05T21:18:43.106Z,101525.47
2023-04-05T21:21:12.557Z,101535.19
2023-04-05T21:23:40.663Z,101463.38
2023-04-05T21:26:09.037Z,101511.53
2023-04-05T21:28:37.148Z,101529.13
2023-04-05T21:31:05.292Z,101350.69
2023-04-05T21:33:33.442Z,101525.47
2023-04-05T21:36:01.734Z,101523.75
2023-04-05T21:38:31.266Z,101526.44
2023-04-05T21:40:59.525Z,101525.47
2023-04-05T21:43:27.596Z,101457.28
2023-04-05T21:45:55.724Z,101438.47
2023-04-05T21:48:24.892Z,101529.94
2023-04-05T21:50:53.058Z,101438.69
2023-04-05T21:53:21.209Z,101534.47
2023-04-05T21:55:50.639Z,101529.13
2023-04-05T21:58:18.688Z,101522.03
2023-04-05T22:00:46.755Z,101525.69
2023-04-05T22:03:14.940Z,101523.75
2023-04-05T22:05:43.109Z,101529.13
2023-04-05T22:08:11.511Z,101523.75
2023-04-05T22:10:39.926Z,101529.13
2023-04-05T22:13:09.499Z,101523.75
2023-04-05T22:15:37.560Z,101534.47
2023-04-05T22:18:05.978Z,101513.06
2023-04-05T22:20:34.251Z,101522.03
2023-04-05T22:23:02.390Z,101516.91
2023-04-05T22:25:30.688Z,101409.44
2023-04-05T22:28:00.196Z,101436.31
2023-04-05T22:30:40.869Z,101506.19
2023-04-05T22:33:12.900Z,101518.63
2023-04-05T22:35:41.472Z,101514.13
2023-04-05T22:38:09.951Z,101520.34
2023-04-05T22:40:38.023Z,101521.19
2023-04-05T22:43:06.568Z,101516.69
2023-04-05T22:45:36.211Z,101514.00
2023-04-05T22:48:04.434Z,101511.31
2023-04-05T22:50:33.027Z,101509.63
2023-04-05T22:53:01.143Z,101512.53
2023-04-05T22:55:29.411Z,101514.97
2023-04-05T22:57:57.894Z,101514.97
2023-04-05T23:00:26.036Z,101521.19
2023-04-05T23:02:55.565Z,101516.91
2023-04-05T23:05:23.672Z,101520.34
2023-04-05T23:07:51.777Z,101518.63
2023-04-05T23:10:20.827Z,101522.03
2023-04-05T23:12:49.703Z,101515.84
2023-04-05T23:15:18.020Z,101510.81
2023-04-05T23:17:46.429Z,101516.69
2023-04-05T23:20:16.712Z,101335.53
2023-04-05T23:22:45.193Z,101499.91
2023-04-05T23:25:13.633Z,101514.00
2023-04-05T23:27:41.709Z,101427.75
2023-04-05T23:30:10.927Z,101503.03
2023-04-05T23:32:39.104Z,101346.44
2023-04-05T23:35:07.786Z,101518.63
2023-04-05T23:37:37.603Z,101520.34
2023-04-05T23:40:06.965Z,101509.63
2023-04-05T23:42:35.126Z,101366.06
2023-04-05T23:45:04.416Z,101510.72
2023-04-05T23:47:32.555Z,101508.75
2023-04-05T23:50:00.734Z,101421.56
2023-04-05T23:52:28.939Z,101509.63
2023-04-05T23:54:58.586Z,101513.28
2023-04-05T23:57:26.777Z,101502.56
2023-04-05T23:59:54.903Z,101420.28
